Greenville, NC

6:42 AM EDT on September 30, 2014 (GMT -0400)
ECU Main Campus | Change Station
CLOSE
Current Station
Personal Weather Station
Location: Greenville, NC
Elevation: 59 ft
Nearby Weather Stations

Elev 59 ft 35.61 °N, 77.37 °W | Updated 24 seconds ago

Mostly Cloudy
Mostly Cloudy
61.8 °F
Feels Like 61.8 °F
N
0.0
Wind Variable Wind from North
Gusts 0.0 mph

Today
High -- | Low -- °F
--% Chance of Precip.
Yesterday
High -- | Low -- °F
Precip. -- in
7:03 AM 6:54 PM
Waxing Crescent, 35% visible
Pressure 29.94 in
Visibility 1.5 miles
Clouds Mostly Cloudy 200 ft
Dew Point 60 °F
Humidity 95%
Rainfall 0.00 in
Snow Depth Not available.
UV 0.0 out of 12
Pollen 3.20 out of 12
Air Quality Not available.
Flu Activity Not available.
METAR KPGV 301010Z AUTO 00000KT 1 1/2SM BR BKN002 16/16 A2994 RMK AO2

More Conditions Fewer Conditions

Pressure 29.94 in
Visibility 1.5 miles
Clouds Mostly Cloudy 200 ft
Dew Point 60 °F
Humidity 95%
Rainfall 0.00 in
Snow Depth Not available.
UV 0.0 out of 12
Pollen 3.20 out of 12
Air Quality Not available.
Flu Activity Not available.
METAR KPGV 301010Z AUTO 00000KT 1 1/2SM BR BKN002 16/16 A2994 RMK AO2

More Conditions Fewer Conditions

10-Day Weather Forecast

Almanac

Astronomy

Sep. 30, 2014 Rise Set
Actual Time 7:03 AM EDT 6:54 PM EDT
Civil Twilight 6:38 AM EDT 7:20 PM EDT
Nautical Twilight 6:08 AM EDT 7:49 PM EDT
Astronomical Twilight 5:38 AM EDT 8:19 PM EDT
Moon 1:00 PM EDT 11:31 PM EDT
Length of Visible Light 12h 41m
Length of Day
11h 51m
Tomorrow will be 2m 13s shorter.
Waxing Crescent, 35% of the Moon is Illuminated
Today
Waxing Crescent
Oct 1
First Quarter
Oct 8
Full
Oct 15
Last Quarter
Oct 23
New

Today's Extremes

State Highs State Lows

Community

WunderPhotos

Upload Photos

1,757,609 photos uploaded!

WunderBlogs® & News

Nearby

Snow Depth

Station Depth Elevation
No new snow has been reported.

Earthquake Activity

City Distance Mag. Time & Date
No recent earthquake activity has been reported nearby.
Minimum magnitude displayed is 2.5.

Coastal Water Temperatures

Place Temperature
No Stations Reporting

Nearby Weather Stations